Terminal Aerodrome Forecast
Issued by NWS

Home | Current Version | Previous Version | Text Only | Print | Product List | Glossary On
Versions: 1 2 3 4 5 6 7 8 9 10 11 12 13 14 15 16 17 18 19 20 21 22 23 24 25 26 27
000
FTUS43 KDLH 300500
TAFHYR
TAF
KHYR 300532Z 3006/3106 VRB03KT 1SM BR SKC
      TEMPO 3006/3010 1/4SM FG
     FM301000 VRB02KT 2SM BR SCT050
      TEMPO 3010/3013 1/2SM FG SCT002
     FM301300 30008KT P6SM SCT050
     FM302000 30009KT P6SM VCTS SCT040CB BKN070
     FM310200 31005KT P6SM SCT090=

USA.gov is the U.S. government's official web portal to all federal, state and local government web resources and services.